This is the latest recevied weather packets stored in our database for station/object F8KHU-13. If no packets are shown the sender has not sent any weather packets the latest 10 day(s).
| Time | Temp. | Humidity | Pressure | Rain* | Wind** | Luminosity | Snow |
|---|---|---|---|---|---|---|---|
| 1777579835 | 17.78° C | 28% | 1025.7 hPa | 0 mm | - | 0 W/m² | - |
| 1777579815 | 17.78° C | 28% | 1025.6 hPa | 0 mm | - | 0 W/m² | - |
| 1777579795 | 17.78° C | 28% | 1025.7 hPa | 0 mm | - | 0 W/m² | - |
| 1777578935 | 18.33° C | 28% | 1025.5 hPa | 0 mm | - | 0 W/m² | - |
| 1777578915 | 18.33° C | 27% | 1025.5 hPa | 0 mm | - | 0 W/m² | - |
| 1777578895 | 18.33° C | 27% | 1025.4 hPa | 0 mm | - | 0 W/m² | - |
| 1777578035 | 18.89° C | 27% | 1025.3 hPa | 0 mm | - | 0 W/m² | - |
| 1777578015 | 18.89° C | 27% | 1025.3 hPa | 0 mm | - | 0 W/m² | - |
| 1777577995 | 18.89° C | 27% | 1025.4 hPa | 0 mm | - | 0 W/m² | - |
| 1777577115 | 18.89° C | 27% | 1025.3 hPa | 0 mm | - | 0 W/m² | - |
| 1777577095 | 18.89° C | 27% | 1025.3 hPa | 0 mm | - | 0 W/m² | - |
| 1777576235 | 19.44° C | 27% | 1025.1 hPa | 0 mm | - | 0 W/m² | - |
| 1777576215 | 19.44° C | 27% | 1025 hPa | 0 mm | - | 0 W/m² | - |
| 1777576195 | 19.44° C | 27% | 1025.1 hPa | 0 mm | - | 0 W/m² | - |
| 1777575335 | 20.56° C | 27% | 1024.9 hPa | 0 mm | - | 0 W/m² | - |
| 1777575315 | 20.56° C | 27% | 1024.9 hPa | 0 mm | - | 0 W/m² | - |
| 1777575295 | 20.56° C | 27% | 1024.9 hPa | 0 mm | - | 0 W/m² | - |
| 1777574436 | 22.22° C | 26% | 1024.7 hPa | 0 mm | - | 0 W/m² | - |
| 1777574415 | 22.22° C | 26% | 1024.7 hPa | 0 mm | - | 0 W/m² | - |
| 1777574395 | 22.78° C | 26% | 1024.7 hPa | 0 mm | - | 0 W/m² | - |
| 1777573516 | 23.89° C | 26% | 1024.5 hPa | 0 mm | - | 0 W/m² | - |
| 1777573496 | 23.33° C | 26% | 1024.5 hPa | 0 mm | - | 0 W/m² | - |
| 1777572636 | 23.89° C | 26% | 1024.3 hPa | 0 mm | - | 0 W/m² | - |
| 1777572616 | 23.89° C | 26% | 1024.3 hPa | 0 mm | - | 0 W/m² | - |
| 1777572596 | 24.44° C | 25% | 1024.3 hPa | 0 mm | - | 0 W/m² | - |
* Rain latest hour (hover to see other rain measurements)
** Current wind speed in m/s (hover to see current wind gust speed)